sensor_id;sensor_type;location;lat;lon;timestamp;P1;durP1;ratioP1;P2;durP2;ratioP2
74291;SDS011;62687;55.738;37.516;2022-10-26T00:01:21;11.15;;;5.25;;
74291;SDS011;62687;55.738;37.516;2022-10-26T00:04:05;11.93;;;5.18;;
74291;SDS011;62687;55.738;37.516;2022-10-26T00:06:49;12.48;;;4.60;;
74291;SDS011;62687;55.738;37.516;2022-10-26T00:09:33;12.90;;;5.00;;
74291;SDS011;62687;55.738;37.516;2022-10-26T00:12:17;15.20;;;5.78;;
74291;SDS011;62687;55.738;37.516;2022-10-26T00:15:02;10.95;;;4.70;;
74291;SDS011;62687;55.738;37.516;2022-10-26T00:17:46;9.23;;;5.05;;
74291;SDS011;62687;55.738;37.516;2022-10-26T00:20:31;15.23;;;4.93;;
74291;SDS011;62687;55.738;37.516;2022-10-26T00:23:15;12.13;;;4.88;;
74291;SDS011;62687;55.738;37.516;2022-10-26T00:26:00;14.27;;;5.45;;
74291;SDS011;62687;55.738;37.516;2022-10-26T00:28:44;13.80;;;5.47;;
74291;SDS011;62687;55.738;37.516;2022-10-26T00:31:28;11.77;;;4.80;;
74291;SDS011;62687;55.738;37.516;2022-10-26T00:34:13;12.32;;;5.43;;
74291;SDS011;62687;55.738;37.516;2022-10-26T00:36:57;14.88;;;5.55;;
74291;SDS011;62687;55.738;37.516;2022-10-26T00:39:41;12.00;;;4.95;;
74291;SDS011;62687;55.738;37.516;2022-10-26T00:42:25;14.60;;;5.65;;
74291;SDS011;62687;55.738;37.516;2022-10-26T00:45:19;8.30;;;4.72;;
74291;SDS011;62687;55.738;37.516;2022-10-26T00:48:10;13.98;;;5.43;;
74291;SDS011;62687;55.738;37.516;2022-10-26T00:51:19;17.02;;;5.00;;
74291;SDS011;62687;55.738;37.516;2022-10-26T00:54:06;8.38;;;3.45;;
74291;SDS011;62687;55.738;37.516;2022-10-26T00:56:55;10.80;;;5.00;;
74291;SDS011;62687;55.738;37.516;2022-10-26T00:59:39;11.18;;;4.95;;
74291;SDS011;62687;55.738;37.516;2022-10-26T01:02:24;12.52;;;5.00;;
74291;SDS011;62687;55.738;37.516;2022-10-26T01:05:08;13.20;;;5.32;;
74291;SDS011;62687;55.738;37.516;2022-10-26T01:07:54;10.95;;;4.78;;
74291;SDS011;62687;55.738;37.516;2022-10-26T01:10:38;12.82;;;4.43;;
74291;SDS011;62687;55.738;37.516;2022-10-26T01:13:25;11.25;;;4.80;;
74291;SDS011;62687;55.738;37.516;2022-10-26T01:31:41;14.35;;;4.70;;
74291;SDS011;62687;55.738;37.516;2022-10-26T01:34:34;14.60;;;4.57;;
74291;SDS011;62687;55.738;37.516;2022-10-26T01:37:27;11.93;;;5.32;;
74291;SDS011;62687;55.738;37.516;2022-10-26T01:40:21;12.60;;;4.65;;
74291;SDS011;62687;55.738;37.516;2022-10-26T01:43:11;10.52;;;4.60;;
74291;SDS011;62687;55.738;37.516;2022-10-26T01:45:57;12.95;;;4.85;;
74291;SDS011;62687;55.738;37.516;2022-10-26T01:48:44;11.18;;;4.35;;
74291;SDS011;62687;55.738;37.516;2022-10-26T01:51:30;10.88;;;4.57;;
74291;SDS011;62687;55.738;37.516;2022-10-26T01:54:15;11.63;;;4.93;;
74291;SDS011;62687;55.738;37.516;2022-10-26T01:57:00;12.18;;;5.00;;
74291;SDS011;62687;55.738;37.516;2022-10-26T02:05:55;12.20;;;5.13;;
74291;SDS011;62687;55.738;37.516;2022-10-26T02:12:40;11.70;;;4.75;;
74291;SDS011;62687;55.738;37.516;2022-10-26T02:15:37;12.00;;;4.95;;
74291;SDS011;62687;55.738;37.516;2022-10-26T02:21:30;10.60;;;5.25;;
74291;SDS011;62687;55.738;37.516;2022-10-26T02:27:06;10.23;;;4.78;;
74291;SDS011;62687;55.738;37.516;2022-10-26T02:29:54;12.32;;;5.03;;
74291;SDS011;62687;55.738;37.516;2022-10-26T02:32:42;15.13;;;5.28;;
74291;SDS011;62687;55.738;37.516;2022-10-26T02:35:31;14.55;;;4.93;;
74291;SDS011;62687;55.738;37.516;2022-10-26T02:38:18;17.63;;;4.97;;
74291;SDS011;62687;55.738;37.516;2022-10-26T02:41:04;14.10;;;4.82;;
74291;SDS011;62687;55.738;37.516;2022-10-26T02:43:52;10.30;;;4.63;;
74291;SDS011;62687;55.738;37.516;2022-10-26T02:46:41;13.65;;;4.70;;
74291;SDS011;62687;55.738;37.516;2022-10-26T02:49:27;13.65;;;4.82;;
74291;SDS011;62687;55.738;37.516;2022-10-26T02:52:22;11.98;;;4.85;;
74291;SDS011;62687;55.738;37.516;2022-10-26T02:55:24;12.85;;;5.22;;
74291;SDS011;62687;55.738;37.516;2022-10-26T02:58:14;13.50;;;4.93;;
74291;SDS011;62687;55.738;37.516;2022-10-26T03:01:02;8.88;;;4.53;;
74291;SDS011;62687;55.738;37.516;2022-10-26T03:03:47;14.90;;;5.55;;
74291;SDS011;62687;55.738;37.516;2022-10-26T03:06:31;6.32;;;3.97;;
74291;SDS011;62687;55.738;37.516;2022-10-26T03:09:15;13.05;;;4.50;;
74291;SDS011;62687;55.738;37.516;2022-10-26T03:11:59;11.70;;;5.15;;
74291;SDS011;62687;55.738;37.516;2022-10-26T03:14:43;9.48;;;4.43;;
74291;SDS011;62687;55.738;37.516;2022-10-26T03:17:27;12.00;;;4.55;;
74291;SDS011;62687;55.738;37.516;2022-10-26T03:20:11;9.40;;;4.25;;
74291;SDS011;62687;55.738;37.516;2022-10-26T03:22:56;9.75;;;4.30;;
74291;SDS011;62687;55.738;37.516;2022-10-26T03:25:40;8.20;;;4.28;;
74291;SDS011;62687;55.738;37.516;2022-10-26T03:28:24;10.13;;;4.50;;
74291;SDS011;62687;55.738;37.516;2022-10-26T03:31:09;9.50;;;4.43;;
74291;SDS011;62687;55.738;37.516;2022-10-26T03:33:53;15.45;;;5.07;;
74291;SDS011;62687;55.738;37.516;2022-10-26T03:36:37;10.70;;;4.13;;
74291;SDS011;62687;55.738;37.516;2022-10-26T03:39:21;9.30;;;4.30;;
74291;SDS011;62687;55.738;37.516;2022-10-26T03:42:05;9.48;;;4.25;;
74291;SDS011;62687;55.738;37.516;2022-10-26T03:44:49;17.67;;;4.60;;
74291;SDS011;62687;55.738;37.516;2022-10-26T03:47:33;8.73;;;3.88;;
74291;SDS011;62687;55.738;37.516;2022-10-26T03:50:18;11.02;;;4.38;;
74291;SDS011;62687;55.738;37.516;2022-10-26T03:53:04;14.65;;;4.45;;
74291;SDS011;62687;55.738;37.516;2022-10-26T03:55:48;14.10;;;4.07;;
74291;SDS011;62687;55.738;37.516;2022-10-26T03:58:32;11.32;;;4.70;;
74291;SDS011;62687;55.738;37.516;2022-10-26T04:01:16;10.40;;;4.00;;
74291;SDS011;62687;55.738;37.516;2022-10-26T04:04:01;11.23;;;4.30;;
74291;SDS011;62687;55.738;37.516;2022-10-26T04:06:45;9.32;;;4.38;;
74291;SDS011;62687;55.738;37.516;2022-10-26T04:09:29;10.10;;;4.15;;
74291;SDS011;62687;55.738;37.516;2022-10-26T04:12:13;8.32;;;4.90;;
74291;SDS011;62687;55.738;37.516;2022-10-26T04:14:57;11.80;;;4.72;;
74291;SDS011;62687;55.738;37.516;2022-10-26T04:17:41;10.65;;;4.13;;
74291;SDS011;62687;55.738;37.516;2022-10-26T04:20:25;12.20;;;4.68;;
74291;SDS011;62687;55.738;37.516;2022-10-26T04:23:12;12.13;;;4.32;;
74291;SDS011;62687;55.738;37.516;2022-10-26T04:25:57;14.55;;;4.68;;
74291;SDS011;62687;55.738;37.516;2022-10-26T04:28:41;12.38;;;4.72;;
74291;SDS011;62687;55.738;37.516;2022-10-26T04:31:25;16.35;;;4.68;;
74291;SDS011;62687;55.738;37.516;2022-10-26T04:34:09;7.40;;;4.32;;
74291;SDS011;62687;55.738;37.516;2022-10-26T04:36:53;8.23;;;4.40;;
74291;SDS011;62687;55.738;37.516;2022-10-26T04:39:38;14.05;;;4.95;;
74291;SDS011;62687;55.738;37.516;2022-10-26T04:42:22;10.93;;;4.72;;
74291;SDS011;62687;55.738;37.516;2022-10-26T04:45:06;12.10;;;4.68;;
74291;SDS011;62687;55.738;37.516;2022-10-26T04:48:04;13.40;;;4.88;;
74291;SDS011;62687;55.738;37.516;2022-10-26T04:50:50;11.77;;;4.72;;
74291;SDS011;62687;55.738;37.516;2022-10-26T04:53:34;12.32;;;4.82;;
74291;SDS011;62687;55.738;37.516;2022-10-26T04:56:18;10.27;;;4.32;;
74291;SDS011;62687;55.738;37.516;2022-10-26T04:59:03;9.50;;;4.88;;
74291;SDS011;62687;55.738;37.516;2022-10-26T05:01:47;11.68;;;4.68;;
74291;SDS011;62687;55.738;37.516;2022-10-26T05:04:31;9.50;;;4.13;;
74291;SDS011;62687;55.738;37.516;2022-10-26T05:07:14;11.40;;;4.57;;
74291;SDS011;62687;55.738;37.516;2022-10-26T05:09:58;14.40;;;4.72;;
74291;SDS011;62687;55.738;37.516;2022-10-26T05:12:48;9.60;;;4.38;;
74291;SDS011;62687;55.738;37.516;2022-10-26T05:15:34;8.70;;;4.72;;
74291;SDS011;62687;55.738;37.516;2022-10-26T05:18:18;13.20;;;4.85;;
74291;SDS011;62687;55.738;37.516;2022-10-26T05:21:02;15.57;;;5.00;;
74291;SDS011;62687;55.738;37.516;2022-10-26T05:23:50;10.45;;;4.93;;
74291;SDS011;62687;55.738;37.516;2022-10-26T05:26:38;8.18;;;4.57;;
74291;SDS011;62687;55.738;37.516;2022-10-26T05:29:22;13.63;;;5.43;;
74291;SDS011;62687;55.738;37.516;2022-10-26T05:32:06;11.38;;;4.35;;
74291;SDS011;62687;55.738;37.516;2022-10-26T05:34:50;11.38;;;4.78;;
74291;SDS011;62687;55.738;37.516;2022-10-26T05:37:34;13.20;;;4.70;;
74291;SDS011;62687;55.738;37.516;2022-10-26T05:40:18;10.02;;;4.65;;
74291;SDS011;62687;55.738;37.516;2022-10-26T05:43:02;9.85;;;4.40;;
74291;SDS011;62687;55.738;37.516;2022-10-26T05:45:48;10.93;;;4.32;;
74291;SDS011;62687;55.738;37.516;2022-10-26T05:48:33;12.75;;;5.05;;
74291;SDS011;62687;55.738;37.516;2022-10-26T05:51:17;10.45;;;5.25;;
74291;SDS011;62687;55.738;37.516;2022-10-26T05:54:02;12.25;;;4.80;;
74291;SDS011;62687;55.738;37.516;2022-10-26T05:56:46;10.93;;;4.93;;
74291;SDS011;62687;55.738;37.516;2022-10-26T05:59:31;11.13;;;4.45;;
74291;SDS011;62687;55.738;37.516;2022-10-26T06:02:24;12.43;;;4.72;;
74291;SDS011;62687;55.738;37.516;2022-10-26T06:05:25;12.57;;;4.55;;
74291;SDS011;62687;55.738;37.516;2022-10-26T06:08:11;14.57;;;4.93;;
74291;SDS011;62687;55.738;37.516;2022-10-26T06:10:56;16.42;;;4.75;;
74291;SDS011;62687;55.738;37.516;2022-10-26T06:13:42;14.00;;;5.07;;
74291;SDS011;62687;55.738;37.516;2022-10-26T06:16:32;10.50;;;4.60;;
74291;SDS011;62687;55.738;37.516;2022-10-26T06:22:50;9.05;;;4.72;;
74291;SDS011;62687;55.738;37.516;2022-10-26T06:25:56;11.18;;;5.03;;
74291;SDS011;62687;55.738;37.516;2022-10-26T06:28:59;9.43;;;4.10;;
74291;SDS011;62687;55.738;37.516;2022-10-26T06:31:44;9.85;;;4.95;;
74291;SDS011;62687;55.738;37.516;2022-10-26T06:34:32;12.32;;;4.28;;
74291;SDS011;62687;55.738;37.516;2022-10-26T06:37:18;9.90;;;4.05;;
74291;SDS011;62687;55.738;37.516;2022-10-26T06:40:04;15.80;;;4.65;;
74291;SDS011;62687;55.738;37.516;2022-10-26T06:42:49;17.35;;;4.28;;
74291;SDS011;62687;55.738;37.516;2022-10-26T06:45:34;10.93;;;4.47;;
74291;SDS011;62687;55.738;37.516;2022-10-26T06:48:20;9.93;;;4.22;;
74291;SDS011;62687;55.738;37.516;2022-10-26T06:51:08;8.65;;;4.50;;
74291;SDS011;62687;55.738;37.516;2022-10-26T06:54:10;12.88;;;4.65;;
74291;SDS011;62687;55.738;37.516;2022-10-26T06:57:02;12.13;;;4.43;;
74291;SDS011;62687;55.738;37.516;2022-10-26T06:59:49;12.48;;;4.28;;
74291;SDS011;62687;55.738;37.516;2022-10-26T07:02:36;9.93;;;4.40;;
74291;SDS011;62687;55.738;37.516;2022-10-26T07:05:20;12.45;;;4.68;;
74291;SDS011;62687;55.738;37.516;2022-10-26T07:08:04;11.90;;;4.55;;
74291;SDS011;62687;55.738;37.516;2022-10-26T07:10:49;8.40;;;3.90;;
74291;SDS011;62687;55.738;37.516;2022-10-26T07:13:33;12.20;;;4.60;;
74291;SDS011;62687;55.738;37.516;2022-10-26T07:16:17;8.95;;;4.32;;
74291;SDS011;62687;55.738;37.516;2022-10-26T07:19:01;10.45;;;4.30;;
74291;SDS011;62687;55.738;37.516;2022-10-26T07:21:45;13.20;;;4.30;;
74291;SDS011;62687;55.738;37.516;2022-10-26T07:24:30;12.00;;;4.50;;
74291;SDS011;62687;55.738;37.516;2022-10-26T07:27:15;7.85;;;3.92;;
74291;SDS011;62687;55.738;37.516;2022-10-26T07:29:59;9.00;;;4.40;;
74291;SDS011;62687;55.738;37.516;2022-10-26T07:32:44;11.15;;;4.32;;
74291;SDS011;62687;55.738;37.516;2022-10-26T07:35:28;17.10;;;5.13;;
74291;SDS011;62687;55.738;37.516;2022-10-26T07:38:12;7.47;;;4.38;;
74291;SDS011;62687;55.738;37.516;2022-10-26T07:40:56;8.30;;;3.83;;
74291;SDS011;62687;55.738;37.516;2022-10-26T07:43:40;12.48;;;3.97;;
74291;SDS011;62687;55.738;37.516;2022-10-26T07:46:24;11.25;;;3.95;;
74291;SDS011;62687;55.738;37.516;2022-10-26T07:49:09;11.02;;;4.07;;
74291;SDS011;62687;55.738;37.516;2022-10-26T07:51:53;10.23;;;4.07;;
74291;SDS011;62687;55.738;37.516;2022-10-26T07:54:37;12.80;;;4.07;;
74291;SDS011;62687;55.738;37.516;2022-10-26T07:57:21;8.57;;;4.25;;
74291;SDS011;62687;55.738;37.516;2022-10-26T08:00:06;14.20;;;4.57;;
74291;SDS011;62687;55.738;37.516;2022-10-26T08:02:51;12.93;;;4.50;;
74291;SDS011;62687;55.738;37.516;2022-10-26T08:05:36;12.27;;;3.80;;
74291;SDS011;62687;55.738;37.516;2022-10-26T08:08:20;7.80;;;3.63;;
74291;SDS011;62687;55.738;37.516;2022-10-26T08:11:05;9.20;;;4.20;;
74291;SDS011;62687;55.738;37.516;2022-10-26T08:13:52;8.23;;;4.35;;
74291;SDS011;62687;55.738;37.516;2022-10-26T08:16:37;12.15;;;3.95;;
74291;SDS011;62687;55.738;37.516;2022-10-26T08:19:23;13.63;;;4.35;;
74291;SDS011;62687;55.738;37.516;2022-10-26T08:22:07;13.02;;;3.72;;
74291;SDS011;62687;55.738;37.516;2022-10-26T08:24:51;12.27;;;4.40;;
74291;SDS011;62687;55.738;37.516;2022-10-26T08:27:34;10.10;;;4.60;;
74291;SDS011;62687;55.738;37.516;2022-10-26T08:30:18;10.38;;;4.25;;
74291;SDS011;62687;55.738;37.516;2022-10-26T08:33:04;10.80;;;4.03;;
74291;SDS011;62687;55.738;37.516;2022-10-26T08:36:03;12.43;;;4.53;;
74291;SDS011;62687;55.738;37.516;2022-10-26T08:38:48;10.70;;;4.25;;
74291;SDS011;62687;55.738;37.516;2022-10-26T08:41:42;10.15;;;4.32;;
74291;SDS011;62687;55.738;37.516;2022-10-26T08:47:21;8.85;;;4.03;;
74291;SDS011;62687;55.738;37.516;2022-10-26T08:53:37;9.60;;;4.20;;
74291;SDS011;62687;55.738;37.516;2022-10-26T08:56:27;12.30;;;4.38;;
74291;SDS011;62687;55.738;37.516;2022-10-26T09:02:42;10.23;;;4.30;;
74291;SDS011;62687;55.738;37.516;2022-10-26T09:05:29;10.55;;;4.68;;
74291;SDS011;62687;55.738;37.516;2022-10-26T09:08:23;12.00;;;4.97;;
74291;SDS011;62687;55.738;37.516;2022-10-26T09:23:15;8.38;;;4.53;;
74291;SDS011;62687;55.738;37.516;2022-10-26T09:26:13;11.25;;;3.88;;
74291;SDS011;62687;55.738;37.516;2022-10-26T09:29:10;11.90;;;4.05;;
74291;SDS011;62687;55.738;37.516;2022-10-26T09:31:56;11.32;;;4.00;;
74291;SDS011;62687;55.738;37.516;2022-10-26T09:34:52;9.43;;;3.60;;
74291;SDS011;62687;55.738;37.516;2022-10-26T09:37:41;10.00;;;3.60;;
74291;SDS011;62687;55.738;37.516;2022-10-26T09:40:30;7.70;;;3.20;;
74291;SDS011;62687;55.738;37.516;2022-10-26T09:46:14;7.13;;;3.38;;
74291;SDS011;62687;55.738;37.516;2022-10-26T09:49:04;8.63;;;3.75;;
74291;SDS011;62687;55.738;37.516;2022-10-26T09:51:51;9.15;;;3.55;;
74291;SDS011;62687;55.738;37.516;2022-10-26T09:54:34;7.63;;;3.30;;
74291;SDS011;62687;55.738;37.516;2022-10-26T09:59:54;12.90;;;3.97;;
74291;SDS011;62687;55.738;37.516;2022-10-26T10:02:40;9.20;;;3.50;;
74291;SDS011;62687;55.738;37.516;2022-10-26T10:05:32;12.50;;;3.83;;
74291;SDS011;62687;55.738;37.516;2022-10-26T10:11:13;10.70;;;4.07;;
74291;SDS011;62687;55.738;37.516;2022-10-26T10:13:57;8.52;;;3.60;;
74291;SDS011;62687;55.738;37.516;2022-10-26T10:19:45;8.05;;;3.65;;
74291;SDS011;62687;55.738;37.516;2022-10-26T10:22:29;10.10;;;3.90;;
74291;SDS011;62687;55.738;37.516;2022-10-26T10:25:21;10.32;;;3.88;;
74291;SDS011;62687;55.738;37.516;2022-10-26T10:28:18;6.05;;;3.45;;
74291;SDS011;62687;55.738;37.516;2022-10-26T10:31:09;7.03;;;3.30;;
74291;SDS011;62687;55.738;37.516;2022-10-26T10:34:14;8.77;;;3.55;;
74291;SDS011;62687;55.738;37.516;2022-10-26T10:36:59;6.35;;;3.70;;
74291;SDS011;62687;55.738;37.516;2022-10-26T10:39:44;8.63;;;3.70;;
74291;SDS011;62687;55.738;37.516;2022-10-26T10:42:32;6.20;;;3.17;;
74291;SDS011;62687;55.738;37.516;2022-10-26T10:45:19;9.02;;;3.80;;
74291;SDS011;62687;55.738;37.516;2022-10-26T10:51:00;9.77;;;3.72;;
74291;SDS011;62687;55.738;37.516;2022-10-26T10:53:47;10.52;;;3.50;;
74291;SDS011;62687;55.738;37.516;2022-10-26T10:56:41;9.90;;;3.50;;
74291;SDS011;62687;55.738;37.516;2022-10-26T11:14:25;7.00;;;3.38;;
74291;SDS011;62687;55.738;37.516;2022-10-26T11:17:23;6.80;;;3.38;;
74291;SDS011;62687;55.738;37.516;2022-10-26T11:20:33;6.22;;;3.10;;
74291;SDS011;62687;55.738;37.516;2022-10-26T11:23:25;7.93;;;3.30;;
74291;SDS011;62687;55.738;37.516;2022-10-26T11:26:12;10.02;;;3.70;;
74291;SDS011;62687;55.738;37.516;2022-10-26T11:29:46;11.10;;;3.50;;
74291;SDS011;62687;55.738;37.516;2022-10-26T11:32:20;7.50;;;3.28;;
74291;SDS011;62687;55.738;37.516;2022-10-26T11:38:01;10.85;;;3.35;;
74291;SDS011;62687;55.738;37.516;2022-10-26T11:41:04;8.43;;;3.25;;
74291;SDS011;62687;55.738;37.516;2022-10-26T11:47:39;8.25;;;3.65;;
74291;SDS011;62687;55.738;37.516;2022-10-26T11:50:49;9.95;;;3.92;;
74291;SDS011;62687;55.738;37.516;2022-10-26T11:53:37;11.57;;;3.60;;
74291;SDS011;62687;55.738;37.516;2022-10-26T11:56:31;10.05;;;3.33;;
74291;SDS011;62687;55.738;37.516;2022-10-26T11:59:20;6.35;;;3.55;;
74291;SDS011;62687;55.738;37.516;2022-10-26T12:02:14;12.15;;;3.72;;
74291;SDS011;62687;55.738;37.516;2022-10-26T12:07:59;10.05;;;3.47;;
74291;SDS011;62687;55.738;37.516;2022-10-26T12:11:06;6.80;;;3.80;;
74291;SDS011;62687;55.738;37.516;2022-10-26T12:13:53;11.43;;;3.78;;
74291;SDS011;62687;55.738;37.516;2022-10-26T12:19:48;7.22;;;4.55;;
74291;SDS011;62687;55.738;37.516;2022-10-26T12:22:36;6.47;;;3.42;;
74291;SDS011;62687;55.738;37.516;2022-10-26T12:25:22;10.48;;;3.78;;
74291;SDS011;62687;55.738;37.516;2022-10-26T12:28:37;8.48;;;3.20;;
74291;SDS011;62687;55.738;37.516;2022-10-26T12:48:56;9.73;;;3.53;;
74291;SDS011;62687;55.738;37.516;2022-10-26T12:51:42;13.65;;;3.20;;
74291;SDS011;62687;55.738;37.516;2022-10-26T12:54:31;7.53;;;3.35;;
74291;SDS011;62687;55.738;37.516;2022-10-26T12:57:30;7.65;;;3.92;;
74291;SDS011;62687;55.738;37.516;2022-10-26T13:00:29;7.88;;;3.10;;
74291;SDS011;62687;55.738;37.516;2022-10-26T13:09:26;5.88;;;2.63;;
74291;SDS011;62687;55.738;37.516;2022-10-26T13:12:12;6.30;;;2.45;;
74291;SDS011;62687;55.738;37.516;2022-10-26T13:15:17;5.22;;;2.63;;
74291;SDS011;62687;55.738;37.516;2022-10-26T13:18:15;6.10;;;2.60;;
74291;SDS011;62687;55.738;37.516;2022-10-26T13:21:03;7.68;;;3.13;;
74291;SDS011;62687;55.738;37.516;2022-10-26T13:23:56;7.20;;;3.00;;
74291;SDS011;62687;55.738;37.516;2022-10-26T13:32:51;8.80;;;3.65;;
74291;SDS011;62687;55.738;37.516;2022-10-26T13:35:39;13.25;;;3.65;;
74291;SDS011;62687;55.738;37.516;2022-10-26T13:38:27;11.63;;;3.72;;
74291;SDS011;62687;55.738;37.516;2022-10-26T13:41:20;10.82;;;3.67;;
74291;SDS011;62687;55.738;37.516;2022-10-26T13:44:13;9.73;;;3.63;;
74291;SDS011;62687;55.738;37.516;2022-10-26T13:47:05;7.60;;;3.25;;
74291;SDS011;62687;55.738;37.516;2022-10-26T13:49:54;8.90;;;2.97;;
74291;SDS011;62687;55.738;37.516;2022-10-26T13:52:46;7.22;;;2.90;;
74291;SDS011;62687;55.738;37.516;2022-10-26T13:55:47;7.13;;;2.60;;
74291;SDS011;62687;55.738;37.516;2022-10-26T13:58:37;10.63;;;3.88;;
74291;SDS011;62687;55.738;37.516;2022-10-26T14:01:28;11.77;;;3.63;;
74291;SDS011;62687;55.738;37.516;2022-10-26T14:04:14;8.00;;;3.10;;
74291;SDS011;62687;55.738;37.516;2022-10-26T14:06:59;9.95;;;3.15;;
74291;SDS011;62687;55.738;37.516;2022-10-26T14:09:43;10.65;;;3.53;;
74291;SDS011;62687;55.738;37.516;2022-10-26T14:12:33;8.82;;;4.22;;
74291;SDS011;62687;55.738;37.516;2022-10-26T14:15:18;13.43;;;4.25;;
74291;SDS011;62687;55.738;37.516;2022-10-26T14:18:11;18.38;;;4.20;;
74291;SDS011;62687;55.738;37.516;2022-10-26T14:21:01;12.48;;;3.80;;
74291;SDS011;62687;55.738;37.516;2022-10-26T14:23:57;12.35;;;3.92;;
74291;SDS011;62687;55.738;37.516;2022-10-26T14:26:42;9.25;;;3.42;;
74291;SDS011;62687;55.738;37.516;2022-10-26T14:29:30;13.32;;;4.55;;
74291;SDS011;62687;55.738;37.516;2022-10-26T14:32:33;13.00;;;4.55;;
74291;SDS011;62687;55.738;37.516;2022-10-26T14:35:29;10.10;;;4.35;;
74291;SDS011;62687;55.738;37.516;2022-10-26T14:38:19;13.23;;;3.75;;
74291;SDS011;62687;55.738;37.516;2022-10-26T14:41:12;14.75;;;4.15;;
74291;SDS011;62687;55.738;37.516;2022-10-26T14:43:59;7.22;;;4.03;;
74291;SDS011;62687;55.738;37.516;2022-10-26T14:46:45;11.75;;;4.18;;
74291;SDS011;62687;55.738;37.516;2022-10-26T14:49:29;12.02;;;4.22;;
74291;SDS011;62687;55.738;37.516;2022-10-26T14:52:15;8.80;;;3.53;;
74291;SDS011;62687;55.738;37.516;2022-10-26T14:58:07;18.50;;;5.07;;
74291;SDS011;62687;55.738;37.516;2022-10-26T15:04:05;7.93;;;4.22;;
74291;SDS011;62687;55.738;37.516;2022-10-26T15:06:50;13.52;;;5.47;;
74291;SDS011;62687;55.738;37.516;2022-10-26T15:09:38;12.32;;;4.35;;
74291;SDS011;62687;55.738;37.516;2022-10-26T15:12:30;12.95;;;4.47;;
74291;SDS011;62687;55.738;37.516;2022-10-26T15:15:20;16.20;;;4.43;;
74291;SDS011;62687;55.738;37.516;2022-10-26T15:18:09;10.65;;;4.68;;
74291;SDS011;62687;55.738;37.516;2022-10-26T15:24:31;12.23;;;4.55;;
74291;SDS011;62687;55.738;37.516;2022-10-26T15:27:18;12.98;;;5.00;;
74291;SDS011;62687;55.738;37.516;2022-10-26T15:33:17;11.77;;;4.70;;
74291;SDS011;62687;55.738;37.516;2022-10-26T15:39:01;12.15;;;5.20;;
74291;SDS011;62687;55.738;37.516;2022-10-26T15:41:46;20.00;;;5.53;;
74291;SDS011;62687;55.738;37.516;2022-10-26T15:44:30;16.33;;;4.80;;
74291;SDS011;62687;55.738;37.516;2022-10-26T15:47:16;8.20;;;4.75;;
74291;SDS011;62687;55.738;37.516;2022-10-26T15:50:02;12.32;;;4.20;;
74291;SDS011;62687;55.738;37.516;2022-10-26T15:52:46;17.70;;;4.90;;
74291;SDS011;62687;55.738;37.516;2022-10-26T15:55:31;13.48;;;4.63;;
74291;SDS011;62687;55.738;37.516;2022-10-26T15:58:15;9.70;;;4.22;;
74291;SDS011;62687;55.738;37.516;2022-10-26T16:00:59;12.48;;;4.25;;
74291;SDS011;62687;55.738;37.516;2022-10-26T16:03:43;13.35;;;4.22;;
74291;SDS011;62687;55.738;37.516;2022-10-26T16:06:29;9.38;;;3.70;;
74291;SDS011;62687;55.738;37.516;2022-10-26T16:09:15;13.90;;;4.88;;
74291;SDS011;62687;55.738;37.516;2022-10-26T16:12:00;9.35;;;4.38;;
74291;SDS011;62687;55.738;37.516;2022-10-26T16:14:44;11.57;;;4.28;;
74291;SDS011;62687;55.738;37.516;2022-10-26T16:17:28;10.73;;;4.53;;
74291;SDS011;62687;55.738;37.516;2022-10-26T16:20:20;10.13;;;3.45;;
74291;SDS011;62687;55.738;37.516;2022-10-26T16:23:07;6.70;;;4.05;;
74291;SDS011;62687;55.738;37.516;2022-10-26T16:25:51;9.98;;;4.53;;
74291;SDS011;62687;55.738;37.516;2022-10-26T16:28:35;11.48;;;4.03;;
74291;SDS011;62687;55.738;37.516;2022-10-26T16:31:19;14.15;;;4.40;;
74291;SDS011;62687;55.738;37.516;2022-10-26T16:34:04;14.05;;;5.05;;
74291;SDS011;62687;55.738;37.516;2022-10-26T16:36:48;9.07;;;4.25;;
74291;SDS011;62687;55.738;37.516;2022-10-26T16:39:32;9.05;;;4.10;;
74291;SDS011;62687;55.738;37.516;2022-10-26T16:42:16;8.75;;;3.97;;
74291;SDS011;62687;55.738;37.516;2022-10-26T16:45:00;12.85;;;4.18;;
74291;SDS011;62687;55.738;37.516;2022-10-26T16:47:44;10.63;;;3.78;;
74291;SDS011;62687;55.738;37.516;2022-10-26T16:50:28;10.23;;;4.80;;
74291;SDS011;62687;55.738;37.516;2022-10-26T16:53:12;12.20;;;4.53;;
74291;SDS011;62687;55.738;37.516;2022-10-26T16:56:00;10.63;;;4.28;;
74291;SDS011;62687;55.738;37.516;2022-10-26T16:58:49;8.95;;;4.22;;
74291;SDS011;62687;55.738;37.516;2022-10-26T17:01:32;11.80;;;3.80;;
74291;SDS011;62687;55.738;37.516;2022-10-26T17:04:18;15.05;;;4.40;;
74291;SDS011;62687;55.738;37.516;2022-10-26T17:07:03;10.55;;;3.60;;
74291;SDS011;62687;55.738;37.516;2022-10-26T17:09:47;12.43;;;4.03;;
74291;SDS011;62687;55.738;37.516;2022-10-26T17:12:30;10.10;;;4.22;;
74291;SDS011;62687;55.738;37.516;2022-10-26T17:15:14;13.40;;;3.85;;
74291;SDS011;62687;55.738;37.516;2022-10-26T17:17:58;10.18;;;3.70;;
74291;SDS011;62687;55.738;37.516;2022-10-26T17:20:49;11.57;;;4.03;;
74291;SDS011;62687;55.738;37.516;2022-10-26T17:23:33;10.05;;;4.03;;
74291;SDS011;62687;55.738;37.516;2022-10-26T17:26:17;10.38;;;4.25;;
74291;SDS011;62687;55.738;37.516;2022-10-26T17:29:01;9.88;;;3.80;;
74291;SDS011;62687;55.738;37.516;2022-10-26T17:31:45;7.60;;;3.78;;
74291;SDS011;62687;55.738;37.516;2022-10-26T17:34:29;10.57;;;3.95;;
74291;SDS011;62687;55.738;37.516;2022-10-26T17:37:13;9.45;;;4.05;;
74291;SDS011;62687;55.738;37.516;2022-10-26T17:39:57;10.98;;;5.07;;
74291;SDS011;62687;55.738;37.516;2022-10-26T17:42:41;12.38;;;4.43;;
74291;SDS011;62687;55.738;37.516;2022-10-26T17:45:27;9.75;;;3.95;;
74291;SDS011;62687;55.738;37.516;2022-10-26T17:48:11;8.82;;;4.25;;
74291;SDS011;62687;55.738;37.516;2022-10-26T17:50:58;12.35;;;4.32;;
74291;SDS011;62687;55.738;37.516;2022-10-26T17:53:47;10.65;;;4.43;;
74291;SDS011;62687;55.738;37.516;2022-10-26T17:56:34;8.65;;;4.32;;
74291;SDS011;62687;55.738;37.516;2022-10-26T17:59:18;9.20;;;4.05;;
74291;SDS011;62687;55.738;37.516;2022-10-26T18:02:02;10.80;;;4.47;;
74291;SDS011;62687;55.738;37.516;2022-10-26T18:04:46;10.13;;;4.30;;
74291;SDS011;62687;55.738;37.516;2022-10-26T18:07:31;14.68;;;4.55;;
74291;SDS011;62687;55.738;37.516;2022-10-26T18:10:15;9.23;;;4.80;;
74291;SDS011;62687;55.738;37.516;2022-10-26T18:12:59;12.15;;;4.40;;
74291;SDS011;62687;55.738;37.516;2022-10-26T18:15:43;9.57;;;5.20;;
74291;SDS011;62687;55.738;37.516;2022-10-26T18:18:27;10.07;;;4.35;;
74291;SDS011;62687;55.738;37.516;2022-10-26T18:21:11;8.73;;;4.35;;
74291;SDS011;62687;55.738;37.516;2022-10-26T18:23:59;9.43;;;4.03;;
74291;SDS011;62687;55.738;37.516;2022-10-26T18:26:42;12.40;;;4.80;;
74291;SDS011;62687;55.738;37.516;2022-10-26T18:29:26;11.82;;;4.53;;
74291;SDS011;62687;55.738;37.516;2022-10-26T18:32:10;9.32;;;4.15;;
74291;SDS011;62687;55.738;37.516;2022-10-26T18:34:54;10.07;;;4.00;;
74291;SDS011;62687;55.738;37.516;2022-10-26T18:37:38;10.75;;;4.07;;
74291;SDS011;62687;55.738;37.516;2022-10-26T18:40:22;9.27;;;4.40;;
74291;SDS011;62687;55.738;37.516;2022-10-26T18:43:06;9.15;;;3.90;;
74291;SDS011;62687;55.738;37.516;2022-10-26T18:45:50;8.02;;;4.05;;
74291;SDS011;62687;55.738;37.516;2022-10-26T18:48:35;14.02;;;3.95;;